Aérodrome :
LOGIN :

S'inscrire | Disclaimer

   EN    FR    IT 

 










Légende :    VFR   VFR Marginal   IFR   IFR Intensif   IFR Très Intensif
Visi : 
Plafond : 
>= 8 km
>= 3000ft
5 à 8 km
1000 à 3000 ft
1500m à 5 km
500 à 1000 ft
800 à 1500m
200 à 500 ft
< 800m
< 200 ft
Symboles :   Orages  Brouillard  Fortes neiges  Fortes précipitations  Vent > 20 kt
SIGMETs :   Divers  Orages  Givrage  Turbulence  Onde Orograph.  Cendres Volcan.







- Altitude de l'aérodrome : 364 ft
- Voir les cartes d'approche


LFAQ - Albert Bray

DERNIER METAR :
  • 211730Z AUTO 30002KT CAVOK 12/06 Q1029 BECMG 3000 BR

METARs EXPIRÉS :
  • 211700Z AUTO 30003KT CAVOK 12/06 Q1029 NOSIG
  • 211630Z AUTO 28003KT CAVOK 13/06 Q1028 NOSIG
  • 211600Z AUTO 26005KT CAVOK 14/07 Q1028 NOSIG
  • 211530Z AUTO 25006KT CAVOK 14/06 Q1028 NOSIG
  • 211500Z AUTO 26007KT CAVOK 14/06 Q1028 NOSIG

TAF TAF LFAQ
Valide du 21 à 15h jusqu'au 22 à 00h UTC


211400Z 2115/2124 VRB03KT 8000 NSC
BECMG 2119/2121 3000 BR
BECMG 2121/2124 0200 FG VV///
Pas de NOTAMs connus pour ce terrain.



MET'MAP, la Météo Aéronautique d'un coup d'oeil ! - Copyright ORBIFLY Décembre 2007 - Disclaimer

ORBIFLY MET'MAP TEAM :

Programmation & Développement : Alexandra Zaïnal
Conception & Développement : Baudouin d'Aumeries
Co-Programmation & Développement : Marc-Olivier Méhu
Soutien technique & logistique : Manuel Goepfert

Contact : metmap@orbifly.com




SOURCES & CREDITS :

   NOAA